logo
Search for airport 
image banner adimage banner adimage banner ad
image banner ad

EPBY - Bydgoszcz

Located in Bydgoszcz, Poland

ICAO - EPBY, IATA - BZG

Data provided by Airmate  

General information

Coordinates: N53°5'48" E17°58'40"
Elevation is 236 feet MSL.
Magnetic variation is 6.1500° East
View others Airports in Kuyavia-Pomerania

Operational data

Special qualification required
Current time UTC:
Current local time:
Weather
METAR: EPBY 130600Z 26007KT 9999 FEW013 13/11 Q1022
TAF: TAF EPBY 130530Z 1306/1406 27010KT CAVOK TEMPO 1306/1316 25015G25KT BKN035 BECMG 1316/1319 21008KT
View NOTAMs / SUP AIP / TFR affecting this airport [VIEW]
Communications frequencies: [VIEW]

Runways:

RWY identifierQFULength (ft)Width (ft)SurfaceLDA (ft)
08L85°2133328GRASS2133
26R265°2133328GRASS2133
0882°8202197CONC+ASPH8202
26262°8202197CONC+ASPH8202
0229°1936328GRASS1936
20209°1936328GRASS1936
11119°2133328GRASS2133
29299°2133328GRASS2133

Airport contact information

Address: Bydgoszcz Poland

Satellite view of EPBY